Time;durP1;ratioP1;P1;durP2;ratioP2;P2;SDS_P1;SDS_P2;PMS_P1;PMS_P2;Temp;Humidity;BMP_temperature;BMP_pressure;BME280_temperature;BME280_humidity;BME280_pressure;Samples;Min_cycle;Max_cycle;Signal;HPM_P1;HPM_P2
2022/11/24 00:02:00;;;;;;;7.05;2.03;;;;;;;10.51;100.00;99440.28;5010598;28;20037;-68
2022/11/24 00:04:26;;;;;;;5.88;2.00;;;;;;;10.53;100.00;99443.75;5023081;28;20025;-68
2022/11/24 00:06:52;;;;;;;5.88;1.85;;;;;;;10.59;100.00;99454.13;5028781;28;20025;-68
2022/11/24 00:09:18;;;;;;;5.07;1.48;;;;;;;10.60;100.00;99449.69;5029960;28;20025;-68
2022/11/24 00:11:44;;;;;;;3.85;1.73;;;;;;;10.58;100.00;99452.41;5029009;28;20041;-68
2022/11/24 00:14:10;;;;;;;6.30;1.60;;;;;;;10.61;100.00;99454.06;5018574;28;20423;-68
2022/11/24 00:16:36;;;;;;;5.28;1.73;;;;;;;10.65;100.00;99453.00;5010399;28;20069;-68
2022/11/24 00:19:04;;;;;;;3.85;1.50;;;;;;;10.66;100.00;99459.22;5010001;28;20021;-69
2022/11/24 00:21:31;;;;;;;4.90;1.73;;;;;;;10.69;100.00;99464.41;5010347;28;20029;-69
2022/11/24 00:23:57;;;;;;;3.03;1.50;;;;;;;10.64;100.00;99462.78;5009996;28;20033;-69
2022/11/24 00:26:27;;;;;;;5.65;1.75;;;;;;;10.63;100.00;99461.06;5011501;28;20061;-68
2022/11/24 00:28:55;;;;;;;5.57;1.70;;;;;;;10.66;100.00;99467.19;5011528;28;20034;-69
2022/11/24 00:31:29;;;;;;;1.52;1.15;;;;;;;10.63;100.00;99469.03;5018497;28;20021;-69
2022/11/24 00:33:57;;;;;;;3.55;1.58;;;;;;;10.61;100.00;99470.88;5018360;28;20477;-69
2022/11/24 00:36:24;;;;;;;5.30;1.65;;;;;;;10.54;100.00;99488.00;5030004;28;20025;-68
2022/11/24 00:38:55;;;;;;;2.80;1.40;;;;;;;10.43;100.00;99479.63;5028497;28;20042;-68
2022/11/24 00:41:21;;;;;;;4.05;1.50;;;;;;;10.37;100.00;99469.25;5010426;28;20029;-68
2022/11/24 00:43:46;;;;;;;3.22;1.52;;;;;;;10.36;100.00;99477.28;5010168;28;20369;-69
2022/11/24 00:46:12;;;;;;;2.83;1.20;;;;;;;10.34;100.00;99480.00;5022992;28;20026;-68
2022/11/24 00:48:37;;;;;;;2.90;1.55;;;;;;;10.26;100.00;99489.22;5030075;28;20067;-68
2022/11/24 00:51:06;;;;;;;5.50;1.33;;;;;;;10.21;100.00;99492.03;5024385;28;20473;-68
2022/11/24 00:53:32;;;;;;;2.92;1.55;;;;;;;10.21;100.00;99502.66;5030924;28;20536;-68
2022/11/24 00:55:57;;;;;;;1.65;1.25;;;;;;;10.16;100.00;99495.81;5027448;28;20096;-68
2022/11/24 00:58:23;;;;;;;3.97;1.52;;;;;;;10.14;100.00;99498.53;5011040;28;20026;-68
2022/11/24 01:00:49;;;;;;;2.75;1.40;;;;;;;10.11;100.00;99514.59;5011203;28;20404;-68
2022/11/24 01:03:15;;;;;;;2.78;1.70;;;;;;;10.07;100.00;99523.56;5016992;28;20026;-68
2022/11/24 01:05:41;;;;;;;3.03;1.48;;;;;;;10.09;100.00;99504.94;5033155;28;20025;-68
2022/11/24 01:08:07;;;;;;;3.25;1.30;;;;;;;10.10;100.00;99511.97;5034181;28;20111;-68
2022/11/24 01:10:33;;;;;;;1.67;1.20;;;;;;;10.09;100.00;99510.25;5034696;28;20032;-69
2022/11/24 01:12:59;;;;;;;3.15;1.15;;;;;;;10.10;100.00;99523.47;5033212;28;20368;-68
2022/11/24 01:15:26;;;;;;;3.05;1.10;;;;;;;10.13;100.00;99523.34;5034431;28;20030;-69
2022/11/24 01:17:51;;;;;;;2.65;1.30;;;;;;;10.12;100.00;99526.06;5033930;28;20072;-69
2022/11/24 01:20:17;;;;;;;3.58;1.42;;;;;;;10.14;100.00;99525.09;5033846;28;20418;-69
2022/11/24 01:22:42;;;;;;;4.32;1.42;;;;;;;10.04;100.00;99518.38;5033268;28;20035;-68
2022/11/24 01:25:09;;;;;;;6.00;1.08;;;;;;;10.11;100.00;99529.66;5033113;28;20754;-68
2022/11/24 01:27:35;;;;;;;3.67;1.20;;;;;;;10.09;100.00;99537.69;5027247;28;20038;-69
2022/11/24 01:30:01;;;;;;;2.95;1.20;;;;;;;10.10;100.00;99528.78;5032160;28;20032;-68
2022/11/24 01:32:26;;;;;;;3.45;1.52;;;;;;;10.10;100.00;99528.78;5032839;28;20096;-68
2022/11/24 01:34:52;;;;;;;2.22;1.30;;;;;;;10.06;100.00;99531.59;5014605;28;20025;-70
2022/11/24 01:37:17;;;;;;;4.82;1.25;;;;;;;10.07;100.00;99544.81;5014558;28;20512;-69
2022/11/24 01:39:43;;;;;;;3.10;1.20;;;;;;;10.02;100.00;99533.50;5014556;28;20034;-68
2022/11/24 01:42:08;;;;;;;4.75;1.20;;;;;;;10.11;100.00;99545.59;5014289;28;20390;-68
2022/11/24 01:44:34;;;;;;;4.30;1.20;;;;;;;10.12;100.00;99542.91;5014149;28;20060;-69
2022/11/24 01:47:11;;;;;;;1.55;1.30;;;;;;;10.12;100.00;99550.00;5014435;28;20029;-68
2022/11/24 01:49:46;;;;;;;2.65;1.33;;;;;;;10.12;100.00;99542.91;5014649;28;20026;-68
2022/11/24 01:52:23;;;;;;;8.63;1.70;;;;;;;10.15;100.00;99548.09;5013990;28;20030;-68
2022/11/24 01:54:54;;;;;;;2.08;1.88;;;;;;;10.18;100.00;99545.31;5013588;28;20021;-69
2022/11/24 01:57:25;;;;;;;4.20;1.50;;;;;;;10.15;100.00;99548.09;5013548;28;20065;-69
2022/11/24 01:59:54;;;;;;;2.50;1.25;;;;;;;10.07;100.00;99526.22;5013624;28;20080;-68
2022/11/24 02:02:20;;;;;;;3.67;1.45;;;;;;;9.99;100.00;99515.03;5013878;28;20026;-69
2022/11/24 02:04:47;;;;;;;5.93;1.55;;;;;;;10.05;100.00;99530.72;5030727;28;20366;-68
2022/11/24 02:07:13;;;;;;;6.80;1.52;;;;;;;10.07;100.00;99539.50;5033950;28;20136;-68
2022/11/24 02:09:51;;;;;;;3.88;1.50;;;;;;;10.00;100.00;99527.38;5032328;28;20029;-69
2022/11/24 02:12:17;;;;;;;6.15;1.58;;;;;;;9.96;100.00;99528.44;5033804;28;20354;-68
2022/11/24 02:14:43;;;;;;;2.53;1.45;;;;;;;9.91;100.00;99538.38;5032668;28;20108;-68
2022/11/24 02:17:09;;;;;;;3.28;1.42;;;;;;;9.86;100.00;99535.00;5034083;28;20074;-68
2022/11/24 02:19:47;;;;;;;4.43;1.90;;;;;;;9.82;100.00;99536.03;5033744;28;20041;-68
2022/11/24 02:22:26;;;;;;;5.15;1.42;;;;;;;9.81;100.00;99544.06;5033432;28;20083;-69
2022/11/24 02:25:18;;;;;;;2.28;1.35;;;;;;;9.79;100.00;99538.81;5033776;28;20071;-68
2022/11/24 02:27:44;;;;;;;4.38;1.40;;;;;;;9.72;100.00;99534.63;5032247;28;20045;-68
2022/11/24 02:30:10;;;;;;;3.67;1.98;;;;;;;9.71;100.00;99535.56;5030818;28;20021;-68
2022/11/24 02:32:39;;;;;;;7.20;2.65;;;;;;;9.70;100.00;99539.16;5013463;28;20033;-68
2022/11/24 02:35:06;;;;;;;4.45;1.75;;;;;;;9.68;100.00;99541.00;5016839;28;20041;-68
2022/11/24 02:37:32;;;;;;;4.22;1.35;;;;;;;9.60;100.00;99532.47;5033543;28;20377;-68
2022/11/24 02:39:57;;;;;;;3.22;1.42;;;;;;;9.60;100.00;99543.06;5033240;28;20032;-68
2022/11/24 02:42:25;;;;;;;2.72;1.42;;;;;;;9.58;100.00;99538.72;5033202;28;20025;-68
2022/11/24 02:44:56;;;;;;;9.68;2.22;;;;;;;9.57;100.00;99545.81;5033117;28;20098;-69
2022/11/24 02:47:22;;;;;;;6.30;2.15;;;;;;;9.57;100.00;99537.84;5031941;28;20037;-68
2022/11/24 02:49:47;;;;;;;10.23;3.05;;;;;;;9.42;100.00;99525.16;5031569;28;20029;-68
2022/11/24 02:52:13;;;;;;;3.80;2.03;;;;;;;9.50;100.00;99549.63;5033295;28;20101;-69
2022/11/24 02:54:38;;;;;;;5.43;2.03;;;;;;;9.45;100.00;99548.94;5033173;28;20040;-68
2022/11/24 02:57:03;;;;;;;4.55;2.22;;;;;;;9.40;100.00;99550.88;5033291;28;20147;-68
2022/11/24 02:59:29;;;;;;;5.45;2.22;;;;;;;9.39;100.00;99537.66;5030067;28;20049;-69
2022/11/24 03:01:54;;;;;;;4.18;1.80;;;;;;;9.40;100.00;99539.38;5013246;28;20030;-69
2022/11/24 03:04:20;;;;;;;6.57;1.73;;;;;;;9.40;100.00;99550.88;5027196;28;20026;-69
2022/11/24 03:06:45;;;;;;;3.85;2.17;;;;;;;9.32;100.00;99537.84;5032850;28;20105;-69
2022/11/24 03:09:10;;;;;;;14.52;2.20;;;;;;;9.40;100.00;99545.56;5032582;28;20032;-69
2022/11/24 03:11:37;;;;;;;5.30;1.92;;;;;;;9.44;100.00;99541.88;5032765;28;20025;-68
2022/11/24 03:14:03;;;;;;;3.75;1.92;;;;;;;9.46;100.00;99544.47;5032714;28;20021;-69
2022/11/24 03:16:28;;;;;;;4.03;1.73;;;;;;;9.27;100.00;99518.56;5032707;28;20029;-68
2022/11/24 03:18:53;;;;;;;6.30;1.63;;;;;;;9.31;100.00;99533.47;5032365;28;20040;-69
2022/11/24 03:21:19;;;;;;;6.75;1.75;;;;;;;9.31;100.00;99529.94;5032148;28;20123;-68
2022/11/24 03:23:44;;;;;;;4.68;1.75;;;;;;;9.27;100.00;99523.03;5032179;28;20030;-69
2022/11/24 03:26:13;;;;;;;5.32;1.90;;;;;;;9.36;100.00;99548.38;5032084;28;20094;-68
2022/11/24 03:28:39;;;;;;;5.18;1.83;;;;;;;9.27;100.00;99549.56;5032539;28;20036;-68
2022/11/24 03:31:06;;;;;;;1.73;1.42;;;;;;;9.28;100.00;99556.59;5032162;28;20037;-68
2022/11/24 03:33:32;;;;;;;5.43;1.80;;;;;;;9.24;100.00;99555.00;5022970;28;20029;-68
2022/11/24 03:35:57;;;;;;;4.65;2.05;;;;;;;9.22;100.00;99565.63;5021163;28;20029;-69
2022/11/24 03:38:23;;;;;;;6.10;2.00;;;;;;;9.16;100.00;99552.59;5031870;28;20048;-69
2022/11/24 03:40:48;;;;;;;5.90;1.65;;;;;;;9.27;100.00;99560.19;5032425;28;20025;-69
2022/11/24 03:43:14;;;;;;;4.90;2.10;;;;;;;9.29;100.00;99563.66;5032212;28;20392;-68
2022/11/24 03:45:39;;;;;;;4.80;2.03;;;;;;;9.29;100.00;99568.97;5032022;28;20026;-69
2022/11/24 03:48:08;;;;;;;9.77;2.28;;;;;;;9.28;100.00;99568.09;5031859;28;20083;-68
2022/11/24 03:50:34;;;;;;;4.85;1.75;;;;;;;9.31;100.00;99572.41;5031606;28;20484;-69
2022/11/24 03:52:59;;;;;;;4.38;1.60;;;;;;;9.20;100.00;99559.53;5030550;28;20032;-69
2022/11/24 03:55:24;;;;;;;7.90;1.90;;;;;;;9.29;100.00;99571.63;5031702;28;20412;-68
2022/11/24 03:57:50;;;;;;;7.93;2.00;;;;;;;9.34;100.00;99565.22;5031612;28;20133;-70
2022/11/24 04:00:16;;;;;;;21.45;4.20;;;;;;;9.13;100.00;99519.97;5031768;28;20057;-69
2022/11/24 04:02:42;;;;;;;3.22;1.67;;;;;;;9.42;100.00;99569.41;5029461;28;20557;-69
2022/11/24 04:05:08;;;;;;;6.32;2.28;;;;;;;9.46;100.00;99581.63;5031698;28;20049;-69
2022/11/24 04:07:34;;;;;;;6.75;1.90;;;;;;;9.38;100.00;99563.31;5031760;28;20385;-69
2022/11/24 04:09:59;;;;;;;6.22;2.20;;;;;;;9.45;100.00;99575.47;5031748;28;20021;-69
2022/11/24 04:12:43;;;;;;;6.85;1.63;;;;;;;9.56;100.00;99567.97;5032054;28;20491;-69
2022/11/24 04:15:13;;;;;;;6.75;1.80;;;;;;;9.63;100.00;99568.63;5030333;28;20036;-70
2022/11/24 04:17:39;;;;;;;5.43;1.75;;;;;;;9.71;100.00;99572.75;5031585;28;20044;-69
2022/11/24 04:20:05;;;;;;;8.27;2.28;;;;;;;9.77;100.00;99572.50;5030493;28;20036;-69
2022/11/24 04:22:31;;;;;;;5.90;1.83;;;;;;;9.83;100.00;99571.44;5030976;28;20064;-69
2022/11/24 04:24:56;;;;;;;7.85;2.13;;;;;;;9.86;100.00;99566.88;5030539;28;20039;-69
2022/11/24 04:27:21;;;;;;;10.35;2.33;;;;;;;9.90;100.00;99579.13;5027299;28;20358;-69
2022/11/24 04:29:47;;;;;;;6.32;1.92;;;;;;;9.85;100.00;99553.66;5030705;28;20026;-69
2022/11/24 04:32:12;;;;;;;7.78;2.45;;;;;;;9.89;100.00;99566.78;5030689;28;20063;-69
2022/11/24 04:34:38;;;;;;;7.38;1.90;;;;;;;9.97;100.00;99577.97;5026427;28;20708;-69
2022/11/24 04:37:04;;;;;;;10.40;2.20;;;;;;;10.01;100.00;99581.38;5010895;28;20092;-68
2022/11/24 04:39:29;;;;;;;3.28;1.35;;;;;;;10.00;100.00;99583.16;5013845;28;20017;-69
2022/11/24 04:41:54;;;;;;;6.22;1.77;;;;;;;9.99;100.00;99576.13;5010391;28;20029;-69
2022/11/24 04:44:20;;;;;;;5.93;1.42;;;;;;;9.99;100.00;99577.91;5019695;28;20036;-69
2022/11/24 04:46:45;;;;;;;7.30;1.70;;;;;;;10.00;100.00;99583.16;5012039;28;20018;-69
2022/11/24 04:49:11;;;;;;;5.70;1.88;;;;;;;9.94;100.00;99570.13;5012183;28;20030;-69
2022/11/24 04:51:37;;;;;;;9.15;2.20;;;;;;;9.93;100.00;99576.38;5011879;28;20095;-69
2022/11/24 04:54:03;;;;;;;6.53;2.60;;;;;;;9.95;100.00;99581.63;5028752;28;20053;-69
2022/11/24 04:56:29;;;;;;;8.18;2.13;;;;;;;10.05;100.00;99602.47;5031488;28;20074;-69
2022/11/24 04:58:54;;;;;;;15.57;2.58;;;;;;;10.08;100.00;99604.19;5031850;28;20032;-69
2022/11/24 05:01:20;;;;;;;4.57;2.25;;;;;;;10.12;100.00;99606.66;5031808;28;20393;-69
2022/11/24 05:03:45;;;;;;;8.73;2.05;;;;;;;10.11;100.00;99609.38;5027740;28;20042;-70
2022/11/24 05:06:10;;;;;;;5.53;1.92;;;;;;;10.11;100.00;99615.56;5031441;28;20079;-70
2022/11/24 05:08:36;;;;;;;10.52;2.30;;;;;;;10.13;100.00;99602.22;5031524;28;20381;-69
2022/11/24 05:11:05;;;;;;;11.68;2.72;;;;;;;10.18;100.00;99606.44;5027586;28;20029;-69
2022/11/24 05:13:31;;;;;;;9.18;2.35;;;;;;;10.20;100.00;99604.59;5031700;28;20017;-70
2022/11/24 05:15:58;;;;;;;8.63;1.75;;;;;;;10.26;100.00;99603.50;5031539;28;20035;-69
2022/11/24 05:18:24;;;;;;;8.23;2.10;;;;;;;10.29;100.00;99588.31;5029760;28;20079;-69
2022/11/24 05:20:49;;;;;;;6.82;2.42;;;;;;;10.31;100.00;99602.38;5031703;28;20029;-69
2022/11/24 05:23:15;;;;;;;12.60;2.65;;;;;;;10.37;100.00;99602.16;5030231;28;20028;-69
2022/11/24 05:25:41;;;;;;;8.80;3.17;;;;;;;10.41;100.00;99613.56;5031558;28;20049;-69
2022/11/24 05:28:08;;;;;;;8.75;2.35;;;;;;;10.41;100.00;99603.75;5030599;28;20393;-69
2022/11/24 05:30:37;;;;;;;6.03;2.28;;;;;;;10.47;100.00;99610.66;5031073;28;20108;-68
2022/11/24 05:33:07;;;;;;;8.82;2.10;;;;;;;10.45;100.00;99616.03;5024487;28;20029;-69
2022/11/24 05:35:33;;;;;;;13.73;2.75;;;;;;;10.44;100.00;99630.22;5011772;28;20022;-69
2022/11/24 05:37:59;;;;;;;11.48;2.47;;;;;;;10.41;100.00;99626.84;5011667;28;20441;-69
2022/11/24 05:40:24;;;;;;;10.50;2.38;;;;;;;10.50;100.00;99630.00;5011309;28;20036;-69
2022/11/24 05:42:50;;;;;;;12.05;2.33;;;;;;;10.51;100.00;99642.38;5011319;28;20038;-68
2022/11/24 05:45:18;;;;;;;12.80;3.35;;;;;;;10.52;100.00;99645.91;5009794;28;20029;-68
2022/11/24 05:47:44;;;;;;;6.75;2.08;;;;;;;10.48;100.00;99646.94;5011197;28;20444;-67
2022/11/24 05:50:12;;;;;;;11.95;3.22;;;;;;;10.48;100.00;99652.25;5014214;28;20026;-68
2022/11/24 05:52:38;;;;;;;8.50;2.83;;;;;;;10.41;100.00;99662.25;5014637;28;20042;-67
2022/11/24 05:55:05;;;;;;;7.05;2.17;;;;;;;10.43;100.00;99671.03;5014695;28;20030;-67
2022/11/24 05:57:31;;;;;;;7.75;2.05;;;;;;;10.39;100.00;99680.03;5014619;28;20072;-67
2022/11/24 05:59:56;;;;;;;6.50;1.85;;;;;;;10.37;100.00;99678.38;5014564;28;20527;-67
2022/11/24 06:02:21;;;;;;;9.15;2.63;;;;;;;10.35;100.00;99670.47;5012939;28;20040;-67
2022/11/24 06:04:47;;;;;;;8.48;1.98;;;;;;;10.27;100.00;99666.34;5034177;28;20060;-67
2022/11/24 06:07:13;;;;;;;7.22;2.35;;;;;;;10.34;100.00;99679.38;5034224;28;20417;-67
2022/11/24 06:09:40;;;;;;;15.35;2.30;;;;;;;10.32;100.00;99686.53;5034194;28;20815;-67
2022/11/24 06:12:06;;;;;;;8.38;2.35;;;;;;;10.21;100.00;99685.19;5033973;28;20469;-67
2022/11/24 06:14:31;;;;;;;8.15;2.38;;;;;;;10.27;100.00;99711.53;5034109;28;20021;-67
2022/11/24 06:16:57;;;;;;;18.48;2.70;;;;;;;10.27;100.00;99704.44;5033872;28;20028;-68
2022/11/24 06:19:22;;;;;;;6.57;1.95;;;;;;;10.30;100.00;99709.66;5033979;28;20465;-66
2022/11/24 06:21:48;;;;;;;7.60;2.10;;;;;;;10.29;100.00;99707.94;5024995;28;20485;-67
2022/11/24 06:24:13;;;;;;;13.73;2.20;;;;;;;10.27;100.00;99707.09;5013951;28;20149;-67
2022/11/24 06:26:39;;;;;;;14.32;2.65;;;;;;;10.25;100.00;99716.91;5014070;28;20120;-67
2022/11/24 06:29:05;;;;;;;7.40;2.25;;;;;;;10.25;100.00;99724.00;5021726;28;20036;-67
2022/11/24 06:31:30;;;;;;;4.57;1.83;;;;;;;10.22;100.00;99730.31;5033577;28;20041;-67
2022/11/24 06:33:56;;;;;;;5.30;2.60;;;;;;;10.21;100.00;99744.50;5033661;28;20018;-67
2022/11/24 06:36:21;;;;;;;23.42;3.88;;;;;;;10.17;100.00;99758.84;5033631;28;20114;-68
2022/11/24 06:38:46;;;;;;;7.40;2.08;;;;;;;10.02;100.00;99748.72;5033586;28;20067;-68
2022/11/24 06:41:14;;;;;;;7.13;2.38;;;;;;;10.14;100.00;99777.56;5033513;28;20476;-68
2022/11/24 06:43:40;;;;;;;10.73;2.60;;;;;;;10.11;100.00;99785.66;5033452;28;20057;-67
2022/11/24 06:46:05;;;;;;;7.80;2.53;;;;;;;10.12;100.00;99782.06;5033075;28;20408;-67
2022/11/24 06:48:32;;;;;;;8.68;2.53;;;;;;;10.16;100.00;99799.66;5033525;28;20034;-68
2022/11/24 06:50:59;;;;;;;8.20;1.90;;;;;;;10.17;100.00;99805.81;5019914;28;20040;-67
2022/11/24 06:53:24;;;;;;;6.47;1.73;;;;;;;9.96;100.00;99782.59;5012239;28;20052;-67
2022/11/24 06:55:50;;;;;;;3.55;1.23;;;;;;;9.99;100.00;99793.13;5013672;28;20458;-67
2022/11/24 06:58:16;;;;;;;3.90;1.40;;;;;;;10.00;100.00;99801.03;5013322;28;20109;-68
2022/11/24 07:00:41;;;;;;;5.95;1.80;;;;;;;10.03;100.00;99803.59;5012516;28;20144;-68
2022/11/24 07:03:14;;;;;;;3.35;1.40;;;;;;;10.03;100.00;99798.28;5016439;28;20021;-68
2022/11/24 07:05:40;;;;;;;8.35;1.60;;;;;;;10.07;100.00;99802.56;5033110;28;20031;-68
2022/11/24 07:08:05;;;;;;;3.95;1.40;;;;;;;9.89;100.00;99784.59;5020528;28;21544;-68
2022/11/24 07:10:30;;;;;;;4.38;1.75;;;;;;;9.93;100.00;99796.00;5014369;28;20500;-67
2022/11/24 07:12:56;;;;;;;2.80;1.15;;;;;;;9.96;100.00;99799.41;5013079;28;20026;-67
2022/11/24 07:15:21;;;;;;;2.20;1.40;;;;;;;9.97;100.00;99803.81;5013117;28;20029;-68
2022/11/24 07:17:47;;;;;;;3.33;1.45;;;;;;;9.93;100.00;99802.19;5012684;28;20033;-68
2022/11/24 07:20:12;;;;;;;1.23;0.90;;;;;;;9.84;100.00;99797.16;5013107;28;20026;-68
2022/11/24 07:22:37;;;;;;;6.60;1.30;;;;;;;9.88;100.00;99793.50;5024277;28;20025;-67
2022/11/24 07:25:06;;;;;;;4.72;1.85;;;;;;;9.85;100.00;99796.22;5032697;28;20208;-66
2022/11/24 07:27:32;;;;;;;5.15;1.25;;;;;;;9.81;100.00;99807.91;5031605;28;20025;-66
2022/11/24 07:29:58;;;;;;;3.20;1.50;;;;;;;9.80;100.00;99799.97;5032510;28;20021;-66
2022/11/24 07:32:23;;;;;;;3.58;1.38;;;;;;;9.77;100.00;99800.94;5031228;28;20519;-66
2022/11/24 07:34:48;;;;;;;5.45;1.80;;;;;;;9.79;100.00;99804.41;5016733;28;20381;-66
2022/11/24 07:37:14;;;;;;;6.53;1.98;;;;;;;9.80;100.00;99821.22;5032449;28;20044;-66
2022/11/24 07:39:39;;;;;;;3.78;2.58;;;;;;;9.81;100.00;99810.56;5032060;28;20029;-66
2022/11/24 07:42:05;;;;;;;7.45;2.97;;;;;;;9.85;100.00;99821.94;5011490;28;20164;-67
2022/11/24 07:44:31;;;;;;;5.68;2.30;;;;;;;9.80;100.00;99819.41;5012141;28;20022;-67
2022/11/24 07:46:56;;;;;;;3.40;1.70;;;;;;;9.81;100.00;99826.50;5011095;28;20075;-67
2022/11/24 07:49:21;;;;;;;8.55;2.70;;;;;;;9.80;100.00;99822.06;5012454;28;20370;-68
2022/11/24 07:51:47;;;;;;;4.15;2.05;;;;;;;9.86;100.00;99821.91;5023560;28;20660;-67
2022/11/24 07:54:12;;;;;;;8.10;1.65;;;;;;;9.88;100.00;99828.03;5047160;28;20021;-67
2022/11/24 07:56:38;;;;;;;5.47;1.90;;;;;;;9.90;100.00;99828.81;5031681;28;20108;-67
2022/11/24 07:59:03;;;;;;;4.40;1.92;;;;;;;9.90;100.00;99827.97;5030437;28;20029;-66
2022/11/24 08:01:29;;;;;;;6.97;1.90;;;;;;;9.89;100.00;99820.91;5023356;28;20132;-66
2022/11/24 08:03:54;;;;;;;6.53;1.80;;;;;;;9.92;100.00;99823.47;5022504;28;20104;-66
2022/11/24 08:06:20;;;;;;;6.72;1.90;;;;;;;9.97;100.00;99833.03;5024988;28;20021;-66
2022/11/24 08:08:46;;;;;;;8.38;2.53;;;;;;;10.12;100.00;99824.59;5019134;28;20032;-66
2022/11/24 08:11:16;;;;;;;12.13;3.88;;;;;;;10.18;100.00;99832.34;5018233;28;20029;-66
2022/11/24 08:13:42;;;;;;;12.48;4.10;;;;;;;10.13;100.00;99821.00;5025213;28;20021;-66
2022/11/24 08:16:11;;;;;;;11.55;4.53;;;;;;;10.24;100.00;99840.13;5020223;28;20022;-66
2022/11/24 08:18:38;;;;;;;9.13;4.32;;;;;;;10.23;100.00;99843.69;5020557;28;20094;-67
2022/11/24 08:21:05;;;;;;;7.38;2.83;;;;;;;10.18;100.00;99827.03;5021165;28;20452;-67
2022/11/24 08:23:31;;;;;;;8.77;2.53;;;;;;;10.35;100.00;99840.63;5016018;28;20029;-67
2022/11/24 08:26:01;;;;;;;7.05;3.50;;;;;;;10.45;100.00;99849.13;5021646;28;20066;-66
2022/11/24 08:28:27;;;;;;;8.75;2.75;;;;;;;10.52;100.00;99850.66;5014156;28;20545;-66
2022/11/24 08:31:00;;;;;;;8.85;2.90;;;;;;;10.50;100.00;99850.72;5018188;28;20179;-66
2022/11/24 08:33:26;;;;;;;9.75;3.33;;;;;;;10.53;100.00;99857.72;5015101;28;20419;-66
2022/11/24 08:35:51;;;;;;;9.02;3.17;;;;;;;10.56;100.00;99862.91;5015882;28;20032;-67
2022/11/24 08:38:16;;;;;;;6.95;2.58;;;;;;;10.55;100.00;99864.72;5015005;28;20108;-67
2022/11/24 08:40:42;;;;;;;9.10;3.03;;;;;;;10.54;100.00;99862.97;5017304;28;20030;-68
2022/11/24 08:43:07;;;;;;;7.95;2.92;;;;;;;10.48;100.00;99849.91;5017583;28;20674;-67
2022/11/24 08:45:33;;;;;;;7.03;2.45;;;;;;;10.56;100.00;99863.78;5014222;28;20030;-65
2022/11/24 08:47:58;;;;;;;4.72;2.10;;;;;;;10.54;100.00;99864.78;5011003;28;20022;-66
2022/11/24 08:50:24;;;;;;;8.00;1.98;;;;;;;10.52;100.00;99858.66;5012723;28;20049;-64
2022/11/24 08:52:52;;;;;;;7.07;2.60;;;;;;;10.58;100.00;99877.03;5015216;28;20022;-67
2022/11/24 08:55:17;;;;;;;12.25;4.65;;;;;;;10.57;100.00;99872.66;5014631;28;20135;-68
2022/11/24 08:57:43;;;;;;;8.43;2.67;;;;;;;10.54;100.00;99878.94;5016115;28;20160;-67
2022/11/24 09:00:09;;;;;;;16.65;6.82;;;;;;;10.57;100.00;99876.19;5028374;28;20143;-67
2022/11/24 09:02:35;;;;;;;14.77;8.85;;;;;;;10.53;100.00;99866.56;5029442;28;20057;-67
2022/11/24 09:05:00;;;;;;;14.43;7.07;;;;;;;10.64;100.00;99882.16;5019443;28;20044;-67
2022/11/24 09:07:25;;;;;;;12.32;5.00;;;;;;;10.70;100.00;99886.38;5023963;28;20030;-67
2022/11/24 09:09:51;;;;;;;12.75;4.55;;;;;;;10.74;100.00;99885.38;5016511;28;20034;-67
2022/11/24 09:12:16;;;;;;;8.02;2.70;;;;;;;10.80;100.00;99887.78;5012239;28;20492;-67
2022/11/24 09:14:42;;;;;;;9.57;2.53;;;;;;;10.91;100.00;99873.19;5019917;28;20078;-68
2022/11/24 09:17:07;;;;;;;6.97;2.45;;;;;;;11.77;100.00;99885.91;5027640;28;20033;-67
2022/11/24 09:19:33;;;;;;;11.18;3.53;;;;;;;11.95;100.00;99895.81;5011742;28;20033;-67
2022/11/24 09:21:58;;;;;;;6.40;2.22;;;;;;;12.17;100.00;99902.03;5011345;28;20025;-66
2022/11/24 09:24:24;;;;;;;10.45;2.58;;;;;;;12.19;100.00;99894.81;5018917;28;20037;-70
2022/11/24 09:26:49;;;;;;;10.43;2.67;;;;;;;12.38;100.00;99911.81;5018693;28;20026;-71
2022/11/24 09:29:14;;;;;;;7.13;2.90;;;;;;;12.13;100.00;99894.19;5020749;28;20017;-68
2022/11/24 09:31:40;;;;;;;4.68;2.00;;;;;;;11.93;100.00;99908.34;5027988;28;20112;-69
2022/11/24 09:34:09;;;;;;;7.97;2.42;;;;;;;11.84;100.00;99930.03;5036237;28;20034;-69
2022/11/24 09:36:35;;;;;;;7.53;2.63;;;;;;;11.79;100.00;99927.53;5022887;28;20042;-69
2022/11/24 09:39:01;;;;;;;13.52;5.05;;;;;;;11.79;100.00;99929.34;5021617;28;20141;-67
2022/11/24 09:41:34;;;;;;;8.18;3.53;;;;;;;11.79;100.00;99932.84;5019815;28;20044;-68
2022/11/24 09:44:10;;;;;;;14.30;3.73;;;;;;;12.08;100.00;99941.50;5018160;28;20021;-68
2022/11/24 09:46:41;;;;;;;13.55;4.20;;;;;;;12.20;100.00;99944.56;5021507;28;20033;-69
2022/11/24 09:49:14;;;;;;;9.00;2.92;;;;;;;12.39;100.00;99947.38;5017617;28;20489;-67
2022/11/24 09:51:45;;;;;;;6.18;2.78;;;;;;;12.58;100.00;99945.66;5019209;28;20029;-68
2022/11/24 09:54:18;;;;;;;7.75;2.60;;;;;;;12.58;100.00;99948.34;5017939;28;20044;-68
2022/11/24 09:56:45;;;;;;;7.35;2.20;;;;;;;12.49;100.00;99946.91;5035295;28;20022;-67
2022/11/24 09:59:20;;;;;;;11.63;2.63;;;;;;;12.49;100.00;99954.91;5017143;28;20144;-67
2022/11/24 10:01:47;;;;;;;9.95;3.83;;;;;;;12.46;100.00;99956.84;5020763;28;20049;-69
2022/11/24 10:04:20;;;;;;;13.98;3.50;;;;;;;12.45;100.00;99966.66;5016408;28;20478;-70
2022/11/24 10:07:22;;;;;;;8.20;2.35;;;;;;;12.43;100.00;99960.50;5015886;28;20022;-68
2022/11/24 10:10:00;;;;;;;9.95;3.28;;;;;;;12.45;100.00;99972.00;5019656;28;20029;-69
2022/11/24 10:12:44;;;;;;;27.40;8.55;;;;;;;12.54;100.00;99968.06;5034017;28;20029;-68
2022/11/24 10:15:41;;;;;;;10.30;2.90;;;;;;;12.51;100.00;99974.41;5022159;28;20071;-71
2022/11/24 10:18:13;;;;;;;16.23;5.28;;;;;;;12.51;100.00;99954.84;5019324;28;20180;-69
2022/11/24 10:21:00;;;;;;;12.23;2.80;;;;;;;12.66;100.00;99968.44;5022820;28;20045;-67
2022/11/24 10:23:36;;;;;;;10.57;2.65;;;;;;;12.68;100.00;99969.25;5021399;28;20117;-68
2022/11/24 10:26:11;;;;;;;12.02;3.08;;;;;;;12.71;100.00;99971.78;5021072;28;20032;-68
2022/11/24 10:28:36;;;;;;;7.03;2.45;;;;;;;12.77;100.00;99965.28;5021176;28;20431;-67
2022/11/24 10:31:33;;;;;;;9.63;2.88;;;;;;;12.88;100.00;99979.91;5022171;28;20025;-68
2022/11/24 10:34:31;;;;;;;13.77;4.90;;;;;;;13.20;100.00;99975.91;5009512;28;20037;-68
2022/11/24 10:37:21;;;;;;;17.52;3.58;;;;;;;13.58;100.00;99977.75;5011688;28;20469;-69
2022/11/24 10:40:05;;;;;;;10.50;2.70;;;;;;;14.19;100.00;99970.41;5032797;28;20072;-67
2022/11/24 10:42:39;;;;;;;8.88;2.03;;;;;;;14.62;100.00;99967.41;5018525;28;20485;-67
2022/11/24 10:45:12;;;;;;;6.95;2.53;;;;;;;15.55;97.28;99973.25;5016726;28;20398;-68
2022/11/24 10:47:38;;;;;;;8.77;2.40;;;;;;;16.54;93.54;99960.59;5016285;28;20026;-68
2022/11/24 10:50:03;;;;;;;9.63;2.00;;;;;;;17.68;84.08;99958.09;5013967;28;20056;-68
2022/11/24 10:52:35;;;;;;;9.50;1.92;;;;;;;18.27;75.18;99963.25;5015376;28;20029;-68
2022/11/24 10:55:03;;;;;;;8.77;2.33;;;;;;;18.92;71.75;99977.81;5017602;28;20029;-69
2022/11/24 10:57:33;;;;;;;4.38;1.63;;;;;;;19.38;67.87;99973.75;5015738;28;20037;-69
2022/11/24 11:00:00;;;;;;;9.70;1.92;;;;;;;19.77;65.45;99981.75;5017738;28;20045;-69
2022/11/24 11:02:36;;;;;;;7.40;1.88;;;;;;;20.27;61.13;99972.75;5017021;28;20769;-70
2022/11/24 11:05:30;;;;;;;8.55;2.50;;;;;;;20.51;60.85;99977.22;5016113;28;20385;-69
2022/11/24 11:08:16;;;;;;;12.27;2.67;;;;;;;20.30;60.44;99969.81;5017135;28;20101;-68
2022/11/24 11:10:43;;;;;;;6.47;2.70;;;;;;;19.74;59.11;99971.16;5015185;28;20026;-69
2022/11/24 11:13:28;;;;;;;7.93;1.92;;;;;;;18.77;62.74;99986.91;5020967;28;20021;-69
2022/11/24 11:15:54;;;;;;;4.22;1.42;;;;;;;18.02;67.37;99982.81;5015958;28;20878;-67
2022/11/24 11:18:21;;;;;;;9.98;1.60;;;;;;;17.28;68.36;99980.31;5019459;28;20458;-67
2022/11/24 11:20:55;;;;;;;11.07;1.77;;;;;;;16.70;72.08;99966.78;5018910;28;20053;-67
2022/11/24 11:23:29;;;;;;;9.20;1.52;;;;;;;16.31;75.27;99975.25;5018114;28;20026;-67
2022/11/24 11:26:17;;;;;;;5.80;1.20;;;;;;;15.91;77.00;99970.41;5019610;28;20041;-68
2022/11/24 11:28:57;;;;;;;4.47;1.20;;;;;;;15.35;79.43;99981.44;5029538;28;20516;-69
2022/11/24 11:31:22;;;;;;;5.35;1.25;;;;;;;15.09;81.51;99968.53;5018592;28;20030;-68